QTR0712 EDDF-OTHH
Flight info
| Callsign | QTR0712 |
|---|---|
| Flight time | N/A |
| Altitude | 37000 |
| Route | CINDY8S/18 CINDY Z74 LAMPU DCT NOMBO Y161 MAH DCT VAVOR DCT RADIZ DCT NEMEK DCT VRANA DCT DIMIS DCT IPTES UL604 SALUN N705 MMA/N0484F390 P751 DASUM Y234 FYM M872 WEJ L604 GAS G662 KSA N687 KINIB Z511 GISRA L681 ORLEK |
| Aircraft | A35K/H-SDE2E3GHIJ3J4J5LM1ORWXY/LB1D1 |
Departure
| Time | 2026-05-06 14:58 |
|---|---|
| Airport | Frankfurt Main Airport (EDDF) |
Arrival
| Time | N/A |
|---|---|
| Airport | Hamad International Airport (OTHH) |
| Time | Latitude | Longitude | Altitude | Speed | Heading |
|---|---|---|---|---|---|
| 2026-05-06 14:27 | 50.04959 | 8.58296 | 368 ft | 0 kts | 339° |
| 2026-05-06 14:46 | 50.04955 | 8.58299 | 365 ft | 3 kts | 339° |
| 2026-05-06 14:46 | 50.04929 | 8.58314 | 371 ft | 4 kts | 339° |
| 2026-05-06 14:46 | 50.04906 | 8.58328 | 365 ft | 2 kts | 339° |
| 2026-05-06 14:46 | 50.04884 | 8.58345 | 365 ft | 4 kts | 314° |
| 2026-05-06 14:47 | 50.04873 | 8.58377 | 365 ft | 4 kts | 260° |
| 2026-05-06 14:47 | 50.04884 | 8.58414 | 365 ft | 4 kts | 235° |
| 2026-05-06 14:47 | 50.04898 | 8.58448 | 369 ft | 2 kts | 248° |
| 2026-05-06 14:47 | 50.04898 | 8.58450 | 368 ft | 0 kts | 249° |
| 2026-05-06 14:50 | 50.04896 | 8.58438 | 370 ft | 3 kts | 250° |
| 2026-05-06 14:50 | 50.04885 | 8.58392 | 365 ft | 6 kts | 249° |
| 2026-05-06 14:50 | 50.04866 | 8.58315 | 369 ft | 9 kts | 249° |
| 2026-05-06 14:51 | 50.04840 | 8.58208 | 373 ft | 12 kts | 250° |
| 2026-05-06 14:51 | 50.04807 | 8.58067 | 370 ft | 16 kts | 250° |
| 2026-05-06 14:51 | 50.04734 | 8.57927 | 370 ft | 18 kts | 223° |
| 2026-05-06 14:51 | 50.04674 | 8.57756 | 367 ft | 19 kts | 249° |
| 2026-05-06 14:52 | 50.04625 | 8.57552 | 370 ft | 21 kts | 249° |
| 2026-05-06 14:52 | 50.04571 | 8.57328 | 369 ft | 23 kts | 249° |
| 2026-05-06 14:52 | 50.04514 | 8.57087 | 370 ft | 25 kts | 249° |
| 2026-05-06 14:52 | 50.04453 | 8.56834 | 373 ft | 25 kts | 249° |
| 2026-05-06 14:53 | 50.04390 | 8.56570 | 368 ft | 28 kts | 249° |
| 2026-05-06 14:53 | 50.04322 | 8.56282 | 366 ft | 29 kts | 249° |
| 2026-05-06 14:53 | 50.04249 | 8.55980 | 369 ft | 31 kts | 249° |
| 2026-05-06 14:53 | 50.04173 | 8.55658 | 362 ft | 32 kts | 250° |
| 2026-05-06 14:54 | 50.04094 | 8.55333 | 367 ft | 31 kts | 249° |
| 2026-05-06 14:54 | 50.04024 | 8.55044 | 365 ft | 18 kts | 249° |
| 2026-05-06 14:54 | 50.03980 | 8.54856 | 366 ft | 20 kts | 250° |
| 2026-05-06 14:54 | 50.03928 | 8.54638 | 362 ft | 23 kts | 249° |
| 2026-05-06 14:55 | 50.03868 | 8.54396 | 361 ft | 25 kts | 243° |
| 2026-05-06 14:55 | 50.03783 | 8.54148 | 361 ft | 27 kts | 249° |
| 2026-05-06 14:55 | 50.03715 | 8.53869 | 359 ft | 28 kts | 249° |
| 2026-05-06 14:55 | 50.03643 | 8.53574 | 358 ft | 30 kts | 247° |
| 2026-05-06 14:56 | 50.03568 | 8.53265 | 354 ft | 31 kts | 249° |
| 2026-05-06 14:56 | 50.03490 | 8.52941 | 353 ft | 33 kts | 249° |
| 2026-05-06 14:56 | 50.03453 | 8.52803 | 347 ft | 1 kts | 247° |
| 2026-05-06 14:56 | 50.03438 | 8.52746 | 353 ft | 10 kts | 248° |
| 2026-05-06 14:57 | 50.03391 | 8.52625 | 353 ft | 16 kts | 218° |
| 2026-05-06 14:57 | 50.03270 | 8.52593 | 351 ft | 20 kts | 181° |
| 2026-05-06 14:57 | 50.02930 | 8.52597 | 347 ft | 88 kts | 180° |
| 2026-05-06 14:57 | 50.02065 | 8.52607 | 335 ft | 159 kts | 180° |
| 2026-05-06 14:58 | 50.00802 | 8.52643 | 658 ft | 193 kts | 182° |
| 2026-05-06 14:58 | 49.99417 | 8.52678 | 1405 ft | 206 kts | 183° |
| 2026-05-06 14:58 | 49.98437 | 8.52707 | 1874 ft | 220 kts | 181° |
| 2026-05-06 14:58 | 49.96836 | 8.52838 | 2625 ft | 235 kts | 174° |
| 2026-05-06 14:59 | 49.95381 | 8.53844 | 3815 ft | 231 kts | 146° |
| 2026-05-06 14:59 | 49.94420 | 8.55865 | 4092 ft | 239 kts | 111° |
| 2026-05-06 14:59 | 49.93848 | 8.59206 | 4697 ft | 245 kts | 101° |
| 2026-05-06 14:59 | 49.93770 | 8.61009 | 5213 ft | 252 kts | 92° |
| 2026-05-06 15:00 | 49.93767 | 8.63832 | 5924 ft | 270 kts | 92° |
| 2026-05-06 15:00 | 49.93710 | 8.66789 | 6805 ft | 276 kts | 97° |
| 2026-05-06 15:00 | 49.93153 | 8.69629 | 7790 ft | 275 kts | 125° |
| 2026-05-06 15:00 | 49.91837 | 8.71735 | 8830 ft | 273 kts | 146° |
| 2026-05-06 15:01 | 49.90267 | 8.73460 | 9831 ft | 279 kts | 148° |
| 2026-05-06 15:01 | 49.88683 | 8.75348 | 10511 ft | 299 kts | 139° |
| 2026-05-06 15:01 | 49.87410 | 8.78070 | 10993 ft | 326 kts | 122° |
| 2026-05-06 15:01 | 49.86288 | 8.81253 | 11502 ft | 347 kts | 120° |
| 2026-05-06 15:02 | 49.85132 | 8.84559 | 12188 ft | 359 kts | 121° |
| 2026-05-06 15:02 | 49.83904 | 8.87984 | 13043 ft | 367 kts | 121° |
| 2026-05-06 15:02 | 49.82640 | 8.91479 | 13864 ft | 375 kts | 121° |
| 2026-05-06 15:02 | 49.81360 | 8.95006 | 14694 ft | 380 kts | 121° |
| 2026-05-06 15:03 | 49.80057 | 8.98592 | 15542 ft | 384 kts | 121° |
| 2026-05-06 15:03 | 49.78737 | 9.02220 | 16388 ft | 389 kts | 121° |
| 2026-05-06 15:03 | 49.77400 | 9.05886 | 17231 ft | 393 kts | 121° |
| 2026-05-06 15:03 | 49.76186 | 9.09708 | 18094 ft | 400 kts | 112° |
| 2026-05-06 15:04 | 49.75397 | 9.13853 | 18869 ft | 405 kts | 107° |
| 2026-05-06 15:04 | 49.74482 | 9.18002 | 19628 ft | 408 kts | 117° |
| 2026-05-06 15:04 | 49.73014 | 9.21736 | 20455 ft | 408 kts | 128° |
| 2026-05-06 15:04 | 49.71254 | 9.25205 | 21253 ft | 412 kts | 132° |
| 2026-05-06 15:05 | 49.69363 | 9.28578 | 22033 ft | 416 kts | 134° |
| 2026-05-06 15:05 | 49.67420 | 9.31903 | 22820 ft | 420 kts | 134° |
| 2026-05-06 15:05 | 49.65439 | 9.35267 | 23564 ft | 425 kts | 134° |
| 2026-05-06 15:05 | 49.63427 | 9.38629 | 24225 ft | 428 kts | 137° |
| 2026-05-06 15:06 | 49.61198 | 9.41667 | 24907 ft | 429 kts | 145° |
| 2026-05-06 15:06 | 49.58722 | 9.44288 | 25590 ft | 431 kts | 149° |
| 2026-05-06 15:06 | 49.56208 | 9.46712 | 26225 ft | 434 kts | 151° |
| 2026-05-06 15:06 | 49.53610 | 9.49103 | 26927 ft | 436 kts | 152° |
| 2026-05-06 15:07 | 49.50985 | 9.51469 | 27590 ft | 439 kts | 153° |
| 2026-05-06 15:07 | 49.48328 | 9.53849 | 28224 ft | 443 kts | 153° |
| 2026-05-06 15:07 | 49.45659 | 9.56246 | 28857 ft | 446 kts | 153° |
| 2026-05-06 15:07 | 49.42967 | 9.58674 | 29469 ft | 450 kts | 152° |
| 2026-05-06 15:08 | 49.40261 | 9.61121 | 30033 ft | 453 kts | 153° |
| 2026-05-06 15:08 | 49.37537 | 9.63590 | 30521 ft | 456 kts | 153° |
| 2026-05-06 15:08 | 49.34844 | 9.66230 | 30985 ft | 462 kts | 148° |
| 2026-05-06 15:08 | 49.32355 | 9.69405 | 31491 ft | 467 kts | 142° |
| 2026-05-06 15:09 | 49.29990 | 9.72840 | 31951 ft | 470 kts | 141° |
| 2026-05-06 15:09 | 49.27642 | 9.76378 | 32311 ft | 475 kts | 140° |
| 2026-05-06 15:09 | 49.25310 | 9.79959 | 32846 ft | 475 kts | 140° |
| 2026-05-06 15:09 | 49.22980 | 9.83555 | 33289 ft | 477 kts | 141° |
| 2026-05-06 15:10 | 49.20626 | 9.87173 | 33751 ft | 478 kts | 141° |
| 2026-05-06 15:10 | 49.18278 | 9.90766 | 34204 ft | 478 kts | 141° |
| 2026-05-06 15:10 | 49.15924 | 9.94352 | 34651 ft | 477 kts | 141° |
| 2026-05-06 15:10 | 49.13607 | 9.97868 | 35045 ft | 476 kts | 141° |
| 2026-05-06 15:11 | 49.11241 | 10.01446 | 35437 ft | 476 kts | 141° |
| 2026-05-06 15:11 | 49.08887 | 10.04999 | 35812 ft | 476 kts | 141° |
| 2026-05-06 15:11 | 49.06527 | 10.08554 | 36194 ft | 475 kts | 140° |
| 2026-05-06 15:11 | 49.04164 | 10.12076 | 36565 ft | 475 kts | 141° |
| 2026-05-06 15:12 | 49.01755 | 10.15521 | 36766 ft | 477 kts | 142° |
| 2026-05-06 15:12 | 48.96873 | 10.22328 | 36793 ft | 475 kts | 142° |
| 2026-05-06 15:13 | 48.92025 | 10.29097 | 36791 ft | 475 kts | 142° |
| 2026-05-06 15:13 | 48.87173 | 10.35914 | 36790 ft | 475 kts | 142° |
| 2026-05-06 15:14 | 48.82314 | 10.42746 | 36780 ft | 475 kts | 142° |
| 2026-05-06 15:14 | 48.77665 | 10.49932 | 36784 ft | 478 kts | 137° |
| 2026-05-06 15:15 | 48.73151 | 10.57385 | 36790 ft | 480 kts | 138° |
| 2026-05-06 15:15 | 48.68595 | 10.64806 | 36791 ft | 481 kts | 138° |
| 2026-05-06 15:16 | 48.64023 | 10.72106 | 36784 ft | 481 kts | 139° |
| 2026-05-06 15:16 | 48.59406 | 10.79416 | 36783 ft | 481 kts | 139° |
| 2026-05-06 15:17 | 48.54792 | 10.86748 | 36769 ft | 481 kts | 138° |
| 2026-05-06 15:17 | 48.50188 | 10.94108 | 36775 ft | 483 kts | 139° |
| 2026-05-06 15:18 | 48.45554 | 11.01459 | 36776 ft | 483 kts | 139° |
| 2026-05-06 15:18 | 48.40879 | 11.08717 | 36772 ft | 482 kts | 140° |
| 2026-05-06 15:19 | 48.36231 | 11.15907 | 36771 ft | 482 kts | 140° |
| 2026-05-06 15:19 | 48.31560 | 11.23134 | 36737 ft | 482 kts | 140° |
| 2026-05-06 15:20 | 48.26967 | 11.30520 | 36786 ft | 487 kts | 134° |
| 2026-05-06 15:20 | 48.23201 | 11.39074 | 36786 ft | 493 kts | 126° |
| 2026-05-06 15:21 | 48.19764 | 11.47997 | 36785 ft | 495 kts | 125° |
| 2026-05-06 15:21 | 48.16356 | 11.56962 | 36774 ft | 494 kts | 125° |
| 2026-05-06 15:22 | 48.12908 | 11.65903 | 36752 ft | 495 kts | 126° |
| 2026-05-06 15:22 | 48.09458 | 11.74748 | 36741 ft | 496 kts | 126° |
| 2026-05-06 15:23 | 48.05965 | 11.83662 | 36727 ft | 496 kts | 126° |
| 2026-05-06 15:23 | 48.02473 | 11.92547 | 36713 ft | 496 kts | 126° |
| 2026-05-06 15:24 | 47.98974 | 12.01427 | 36710 ft | 495 kts | 127° |
| 2026-05-06 15:24 | 47.95476 | 12.10255 | 36706 ft | 493 kts | 127° |
| 2026-05-06 15:25 | 47.91243 | 12.18063 | 36699 ft | 478 kts | 144° |
| 2026-05-06 15:25 | 47.86299 | 12.24526 | 36703 ft | 475 kts | 146° |
| 2026-05-06 15:26 | 47.81214 | 12.30830 | 36693 ft | 475 kts | 146° |
| 2026-05-06 15:26 | 47.76113 | 12.37131 | 36682 ft | 475 kts | 146° |
| 2026-05-06 15:27 | 47.71037 | 12.43412 | 36702 ft | 475 kts | 146° |
| 2026-05-06 15:27 | 47.65957 | 12.49716 | 36703 ft | 475 kts | 146° |
| 2026-05-06 15:28 | 47.60926 | 12.55993 | 36702 ft | 477 kts | 144° |
| 2026-05-06 15:28 | 47.56089 | 12.62789 | 36683 ft | 480 kts | 141° |
| 2026-05-06 15:29 | 47.51336 | 12.69733 | 36705 ft | 480 kts | 142° |
| 2026-05-06 15:29 | 47.46552 | 12.76597 | 36720 ft | 478 kts | 142° |
| 2026-05-06 15:30 | 47.41744 | 12.83376 | 36731 ft | 478 kts | 143° |
| 2026-05-06 15:30 | 47.36918 | 12.90131 | 36735 ft | 478 kts | 143° |
| 2026-05-06 15:31 | 47.32084 | 12.96886 | 36718 ft | 478 kts | 143° |
| 2026-05-06 15:31 | 47.27250 | 13.03629 | 36762 ft | 479 kts | 143° |
| 2026-05-06 15:32 | 47.19967 | 13.13746 | 36784 ft | 480 kts | 143° |
| 2026-05-06 15:32 | 47.15111 | 13.20477 | 36792 ft | 480 kts | 143° |
| 2026-05-06 15:33 | 47.10249 | 13.27195 | 36809 ft | 480 kts | 143° |
| 2026-05-06 15:33 | 47.05372 | 13.33917 | 36811 ft | 483 kts | 142° |
| 2026-05-06 15:34 | 47.00487 | 13.40626 | 36844 ft | 485 kts | 142° |
| 2026-05-06 15:34 | 46.95519 | 13.47435 | 36851 ft | 486 kts | 142° |
| 2026-05-06 15:35 | 46.90602 | 13.54151 | 36863 ft | 487 kts | 142° |
| 2026-05-06 15:35 | 46.85648 | 13.60918 | 36854 ft | 487 kts | 142° |
| 2026-05-06 15:36 | 46.80694 | 13.67665 | 36868 ft | 487 kts | 142° |
| 2026-05-06 15:36 | 46.75733 | 13.74400 | 36858 ft | 485 kts | 142° |
| 2026-05-06 15:37 | 46.70777 | 13.81100 | 36876 ft | 487 kts | 142° |
| 2026-05-06 15:37 | 46.65792 | 13.87823 | 36877 ft | 488 kts | 142° |
| 2026-05-06 15:38 | 46.60846 | 13.94484 | 36875 ft | 486 kts | 142° |
| 2026-05-06 15:38 | 46.55883 | 14.01149 | 36880 ft | 485 kts | 142° |
| 2026-05-06 15:39 | 46.50893 | 14.07830 | 36867 ft | 485 kts | 142° |
| 2026-05-06 15:39 | 46.45959 | 14.14419 | 36876 ft | 485 kts | 142° |
| 2026-05-06 15:40 | 46.40986 | 14.21043 | 36894 ft | 484 kts | 142° |
| 2026-05-06 15:40 | 46.36025 | 14.27633 | 36939 ft | 483 kts | 142° |
| 2026-05-06 15:41 | 46.31073 | 14.34197 | 36947 ft | 483 kts | 142° |
| 2026-05-06 15:41 | 46.26955 | 14.39640 | 36926 ft | 483 kts | 142° |
| 2026-05-06 15:42 | 46.21989 | 14.46189 | 36925 ft | 483 kts | 142° |
| 2026-05-06 15:42 | 46.17027 | 14.52716 | 36936 ft | 484 kts | 142° |
| 2026-05-06 15:43 | 46.12038 | 14.59260 | 36937 ft | 486 kts | 142° |
| 2026-05-06 15:43 | 46.07029 | 14.65816 | 36935 ft | 486 kts | 142° |
| 2026-05-06 15:44 | 46.02020 | 14.72358 | 36932 ft | 486 kts | 142° |
| 2026-05-06 15:44 | 45.97010 | 14.78884 | 36909 ft | 485 kts | 143° |
| 2026-05-06 15:45 | 45.92028 | 14.85352 | 36922 ft | 487 kts | 143° |
| 2026-05-06 15:45 | 45.86955 | 14.91923 | 36922 ft | 488 kts | 143° |
| 2026-05-06 15:46 | 45.81945 | 14.98398 | 36923 ft | 488 kts | 143° |
| 2026-05-06 15:46 | 45.76903 | 15.04898 | 36923 ft | 488 kts | 143° |
| 2026-05-06 15:47 | 45.71840 | 15.11408 | 36918 ft | 487 kts | 142° |
| 2026-05-06 15:47 | 45.66801 | 15.17872 | 36919 ft | 486 kts | 142° |
| 2026-05-06 15:48 | 45.61774 | 15.24301 | 36921 ft | 486 kts | 142° |
| 2026-05-06 15:48 | 45.56731 | 15.30736 | 36914 ft | 486 kts | 142° |
| 2026-05-06 15:49 | 45.51693 | 15.37189 | 36913 ft | 486 kts | 142° |
| 2026-05-06 15:49 | 45.46646 | 15.43660 | 36917 ft | 488 kts | 142° |
| 2026-05-06 15:50 | 45.41594 | 15.50113 | 36919 ft | 488 kts | 143° |
| 2026-05-06 15:50 | 45.36538 | 15.56551 | 36920 ft | 488 kts | 143° |
| 2026-05-06 15:51 | 45.31474 | 15.62983 | 36918 ft | 488 kts | 143° |
| 2026-05-06 15:51 | 45.26436 | 15.69366 | 36923 ft | 488 kts | 143° |
| 2026-05-06 15:52 | 45.21363 | 15.75777 | 36925 ft | 489 kts | 143° |
| 2026-05-06 15:52 | 45.16248 | 15.82225 | 36926 ft | 489 kts | 143° |
| 2026-05-06 15:53 | 45.11187 | 15.88590 | 36929 ft | 489 kts | 143° |
| 2026-05-06 15:53 | 45.06105 | 15.94966 | 36943 ft | 488 kts | 143° |
| 2026-05-06 15:54 | 45.01017 | 16.01334 | 36942 ft | 488 kts | 143° |
| 2026-05-06 15:54 | 44.95898 | 16.07722 | 36936 ft | 490 kts | 143° |
| 2026-05-06 15:55 | 44.90782 | 16.14091 | 36927 ft | 490 kts | 143° |
| 2026-05-06 15:55 | 44.85669 | 16.20443 | 36932 ft | 490 kts | 143° |
| 2026-05-06 15:56 | 44.80557 | 16.26777 | 36947 ft | 488 kts | 143° |
| 2026-05-06 15:56 | 44.75452 | 16.33088 | 36939 ft | 489 kts | 143° |
| 2026-05-06 15:57 | 44.70332 | 16.39398 | 36953 ft | 490 kts | 143° |
| 2026-05-06 15:57 | 44.65201 | 16.45708 | 36927 ft | 490 kts | 143° |
| 2026-05-06 15:58 | 44.60068 | 16.52008 | 36951 ft | 489 kts | 143° |
| 2026-05-06 15:58 | 44.54942 | 16.58284 | 36965 ft | 489 kts | 144° |
| 2026-05-06 15:59 | 44.49802 | 16.64556 | 36962 ft | 491 kts | 144° |
| 2026-05-06 15:59 | 44.44640 | 16.70840 | 36970 ft | 491 kts | 144° |
| 2026-05-06 16:00 | 44.39510 | 16.77071 | 36972 ft | 491 kts | 144° |
| 2026-05-06 16:00 | 44.34353 | 16.83325 | 36984 ft | 491 kts | 144° |
| 2026-05-06 16:01 | 44.29177 | 16.89588 | 36982 ft | 491 kts | 144° |
| 2026-05-06 16:01 | 44.23993 | 16.95838 | 36990 ft | 493 kts | 144° |
| 2026-05-06 16:02 | 44.18799 | 17.02084 | 36991 ft | 493 kts | 144° |
| 2026-05-06 16:02 | 44.13596 | 17.08331 | 37000 ft | 492 kts | 144° |
| 2026-05-06 16:03 | 44.08411 | 17.14541 | 36998 ft | 492 kts | 144° |
| 2026-05-06 16:03 | 44.03242 | 17.20715 | 37004 ft | 493 kts | 145° |
| 2026-05-06 16:04 | 43.98035 | 17.26918 | 37005 ft | 493 kts | 144° |
| 2026-05-06 16:04 | 43.92829 | 17.33110 | 37007 ft | 492 kts | 144° |
| 2026-05-06 16:05 | 43.87611 | 17.39300 | 37013 ft | 492 kts | 144° |
| 2026-05-06 16:05 | 43.82402 | 17.45465 | 37009 ft | 492 kts | 145° |
| 2026-05-06 16:06 | 43.77191 | 17.51610 | 37014 ft | 492 kts | 144° |
| 2026-05-06 16:06 | 43.71669 | 17.57070 | 37017 ft | 486 kts | 152° |
| 2026-05-06 16:07 | 43.66003 | 17.62145 | 37023 ft | 485 kts | 152° |
| 2026-05-06 16:07 | 43.60346 | 17.67127 | 37006 ft | 485 kts | 152° |
| 2026-05-06 16:08 | 43.54646 | 17.72143 | 37018 ft | 485 kts | 152° |
| 2026-05-06 16:08 | 43.48953 | 17.77160 | 37009 ft | 485 kts | 152° |
| 2026-05-06 16:09 | 43.43253 | 17.82177 | 37053 ft | 486 kts | 152° |
| 2026-05-06 16:09 | 43.37537 | 17.87194 | 37037 ft | 487 kts | 152° |
| 2026-05-06 16:10 | 43.31855 | 17.92173 | 37038 ft | 487 kts | 152° |
| 2026-05-06 16:10 | 43.26113 | 17.97193 | 37036 ft | 487 kts | 152° |
| 2026-05-06 16:11 | 43.20429 | 18.02151 | 37034 ft | 487 kts | 152° |
| 2026-05-06 16:11 | 43.14709 | 18.07127 | 37045 ft | 487 kts | 152° |
| 2026-05-06 16:12 | 43.08985 | 18.12095 | 37045 ft | 488 kts | 152° |
| 2026-05-06 16:12 | 43.03252 | 18.17063 | 37047 ft | 488 kts | 152° |
| 2026-05-06 16:13 | 42.97494 | 18.22039 | 37052 ft | 488 kts | 152° |
| 2026-05-06 16:13 | 42.91751 | 18.26992 | 37047 ft | 488 kts | 152° |
| 2026-05-06 16:14 | 42.86003 | 18.31937 | 37049 ft | 489 kts | 152° |
| 2026-05-06 16:14 | 42.80285 | 18.36845 | 37050 ft | 489 kts | 152° |
| 2026-05-06 16:15 | 42.74515 | 18.41787 | 37049 ft | 489 kts | 152° |
| 2026-05-06 16:15 | 42.68736 | 18.46725 | 37047 ft | 492 kts | 152° |
| 2026-05-06 16:16 | 42.62918 | 18.51686 | 37048 ft | 494 kts | 152° |
| 2026-05-06 16:16 | 42.57128 | 18.56617 | 37070 ft | 494 kts | 152° |
| 2026-05-06 16:17 | 42.51296 | 18.61570 | 37074 ft | 494 kts | 152° |
| 2026-05-06 16:17 | 42.45457 | 18.66515 | 37076 ft | 494 kts | 152° |
| 2026-05-06 16:18 | 42.39654 | 18.71419 | 37076 ft | 495 kts | 152° |
| 2026-05-06 16:18 | 42.33808 | 18.76349 | 37067 ft | 495 kts | 152° |
| 2026-05-06 16:19 | 42.27964 | 18.81264 | 37065 ft | 496 kts | 152° |
| 2026-05-06 16:19 | 42.22095 | 18.86193 | 37065 ft | 496 kts | 152° |
| 2026-05-06 16:20 | 42.16229 | 18.91109 | 37063 ft | 496 kts | 152° |
| 2026-05-06 16:20 | 42.10360 | 18.96015 | 37069 ft | 496 kts | 152° |
| 2026-05-06 16:21 | 42.04482 | 19.00918 | 37071 ft | 496 kts | 152° |
| 2026-05-06 16:21 | 41.98640 | 19.05781 | 37067 ft | 496 kts | 152° |
| 2026-05-06 16:22 | 41.92758 | 19.10666 | 37071 ft | 496 kts | 152° |
| 2026-05-06 16:22 | 41.86883 | 19.15532 | 37067 ft | 497 kts | 152° |
| 2026-05-06 16:23 | 41.81007 | 19.20391 | 37083 ft | 498 kts | 152° |
| 2026-05-06 16:23 | 41.75074 | 19.25287 | 37064 ft | 498 kts | 152° |
| 2026-05-06 16:24 | 41.69216 | 19.30109 | 37074 ft | 498 kts | 152° |
| 2026-05-06 16:24 | 41.63303 | 19.34966 | 37075 ft | 498 kts | 152° |
| 2026-05-06 16:25 | 41.57393 | 19.39809 | 37079 ft | 498 kts | 153° |
| 2026-05-06 16:25 | 41.52477 | 19.43831 | 37069 ft | 498 kts | 153° |
| 2026-05-06 16:26 | 41.46552 | 19.48666 | 37066 ft | 499 kts | 152° |
| 2026-05-06 16:26 | 41.40614 | 19.53502 | 37064 ft | 500 kts | 152° |
| 2026-05-06 16:27 | 41.34703 | 19.58307 | 37065 ft | 500 kts | 153° |
| 2026-05-06 16:27 | 41.28754 | 19.63133 | 37064 ft | 501 kts | 152° |
| 2026-05-06 16:28 | 41.22776 | 19.67970 | 37064 ft | 502 kts | 152° |
| 2026-05-06 16:28 | 41.16806 | 19.72792 | 37067 ft | 502 kts | 152° |
| 2026-05-06 16:29 | 41.10822 | 19.77614 | 37062 ft | 502 kts | 152° |
| 2026-05-06 16:29 | 41.04831 | 19.82430 | 37056 ft | 503 kts | 152° |
| 2026-05-06 16:30 | 40.99859 | 19.86420 | 37057 ft | 503 kts | 152° |
| 2026-05-06 16:30 | 40.92892 | 19.92001 | 37055 ft | 503 kts | 152° |
| 2026-05-06 16:31 | 40.86894 | 19.96792 | 37052 ft | 503 kts | 152° |
| 2026-05-06 16:31 | 40.80888 | 20.01579 | 37050 ft | 503 kts | 152° |
| 2026-05-06 16:32 | 40.74894 | 20.06348 | 37048 ft | 503 kts | 152° |
| 2026-05-06 16:32 | 40.68888 | 20.11117 | 37053 ft | 503 kts | 152° |
| 2026-05-06 16:33 | 40.62922 | 20.15842 | 37050 ft | 503 kts | 152° |
| 2026-05-06 16:34 | 40.53894 | 20.22973 | 37053 ft | 504 kts | 152° |
| 2026-05-06 16:34 | 40.47881 | 20.27711 | 37050 ft | 504 kts | 152° |
| 2026-05-06 16:35 | 40.41861 | 20.32445 | 37051 ft | 504 kts | 152° |
| 2026-05-06 16:35 | 40.35838 | 20.37171 | 37045 ft | 504 kts | 152° |
| 2026-05-06 16:36 | 40.29818 | 20.41885 | 37053 ft | 504 kts | 152° |
| 2026-05-06 16:36 | 40.23835 | 20.46558 | 37055 ft | 504 kts | 152° |
| 2026-05-06 16:37 | 40.17809 | 20.51254 | 37056 ft | 503 kts | 152° |
| 2026-05-06 16:37 | 40.11784 | 20.55943 | 37060 ft | 504 kts | 152° |
| 2026-05-06 16:38 | 40.05759 | 20.60614 | 37064 ft | 502 kts | 153° |
| 2026-05-06 16:38 | 39.99580 | 20.64856 | 37075 ft | 501 kts | 156° |
| 2026-05-06 16:39 | 39.93335 | 20.68880 | 37083 ft | 501 kts | 156° |
| 2026-05-06 16:39 | 39.87110 | 20.72950 | 37079 ft | 501 kts | 156° |
| 2026-05-06 16:40 | 39.80950 | 20.77039 | 37100 ft | 500 kts | 156° |
| 2026-05-06 16:40 | 39.74761 | 20.81161 | 37106 ft | 500 kts | 156° |
| 2026-05-06 16:41 | 39.68551 | 20.85287 | 37102 ft | 501 kts | 156° |
| 2026-05-06 16:41 | 39.62331 | 20.89407 | 37098 ft | 501 kts | 156° |
| 2026-05-06 16:42 | 39.56117 | 20.93514 | 37099 ft | 501 kts | 156° |
| 2026-05-06 16:42 | 39.49933 | 20.97593 | 37093 ft | 501 kts | 156° |
| 2026-05-06 16:43 | 39.43682 | 21.01707 | 37088 ft | 500 kts | 155° |
| 2026-05-06 16:43 | 39.37507 | 21.05763 | 37092 ft | 501 kts | 156° |
| 2026-05-06 16:44 | 39.31296 | 21.09836 | 37091 ft | 500 kts | 156° |
| 2026-05-06 16:44 | 39.25089 | 21.13898 | 37092 ft | 500 kts | 156° |
| 2026-05-06 16:45 | 39.18882 | 21.17952 | 37093 ft | 499 kts | 156° |
| 2026-05-06 16:45 | 39.12684 | 21.21992 | 37092 ft | 499 kts | 156° |
| 2026-05-06 16:46 | 39.06479 | 21.26027 | 37090 ft | 500 kts | 156° |
| 2026-05-06 16:46 | 39.00301 | 21.30038 | 37089 ft | 500 kts | 156° |
| 2026-05-06 16:47 | 38.94089 | 21.34062 | 37092 ft | 500 kts | 156° |
| 2026-05-06 16:47 | 38.87879 | 21.38077 | 37086 ft | 499 kts | 156° |
| 2026-05-06 16:48 | 38.81669 | 21.42083 | 37088 ft | 498 kts | 156° |
| 2026-05-06 16:48 | 38.75477 | 21.46070 | 37089 ft | 498 kts | 156° |
| 2026-05-06 16:49 | 38.69276 | 21.50065 | 37086 ft | 498 kts | 155° |
| 2026-05-06 16:49 | 38.63111 | 21.54146 | 37084 ft | 499 kts | 155° |
| 2026-05-06 16:50 | 38.56996 | 21.58226 | 37086 ft | 498 kts | 155° |
| 2026-05-06 16:50 | 38.50837 | 21.62313 | 37088 ft | 498 kts | 155° |
| 2026-05-06 16:51 | 38.44673 | 21.66383 | 37088 ft | 498 kts | 155° |
| 2026-05-06 16:51 | 38.38510 | 21.70440 | 37088 ft | 498 kts | 155° |
| 2026-05-06 16:52 | 38.32375 | 21.74471 | 37085 ft | 498 kts | 155° |
| 2026-05-06 16:52 | 38.26168 | 21.78542 | 37085 ft | 498 kts | 155° |
| 2026-05-06 16:53 | 38.20044 | 21.82551 | 37096 ft | 499 kts | 155° |
| 2026-05-06 16:53 | 38.13863 | 21.86589 | 37080 ft | 499 kts | 155° |
| 2026-05-06 16:54 | 38.07674 | 21.90626 | 37080 ft | 499 kts | 155° |
| 2026-05-06 16:54 | 38.01493 | 21.94650 | 37090 ft | 499 kts | 155° |
| 2026-05-06 16:55 | 37.95323 | 21.98659 | 37094 ft | 499 kts | 155° |
| 2026-05-06 16:55 | 37.89182 | 22.02641 | 37086 ft | 499 kts | 155° |
| 2026-05-06 16:56 | 37.82999 | 22.06642 | 37096 ft | 499 kts | 155° |
| 2026-05-06 16:56 | 37.76794 | 22.10650 | 37092 ft | 500 kts | 155° |
| 2026-05-06 16:57 | 37.70606 | 22.14640 | 37092 ft | 500 kts | 155° |
| 2026-05-06 16:57 | 37.64403 | 22.18631 | 37092 ft | 501 kts | 155° |
| 2026-05-06 16:58 | 37.58174 | 22.22632 | 37088 ft | 502 kts | 155° |
| 2026-05-06 16:58 | 37.51946 | 22.26625 | 37090 ft | 501 kts | 155° |
| 2026-05-06 16:59 | 37.45727 | 22.30605 | 37089 ft | 501 kts | 155° |
| 2026-05-06 16:59 | 37.39517 | 22.34572 | 37077 ft | 501 kts | 155° |
| 2026-05-06 17:00 | 37.33327 | 22.38515 | 37082 ft | 501 kts | 155° |
| 2026-05-06 17:00 | 37.27092 | 22.42458 | 37086 ft | 501 kts | 156° |
| 2026-05-06 17:01 | 37.20865 | 22.46392 | 37080 ft | 502 kts | 155° |
| 2026-05-06 17:01 | 37.14624 | 22.50331 | 37076 ft | 502 kts | 155° |
| 2026-05-06 17:02 | 37.08382 | 22.54265 | 37081 ft | 502 kts | 155° |
| 2026-05-06 17:02 | 37.02131 | 22.58199 | 37080 ft | 502 kts | 155° |
| 2026-05-06 17:03 | 36.95894 | 22.62116 | 37075 ft | 502 kts | 155° |
| 2026-05-06 17:03 | 36.89686 | 22.66007 | 37075 ft | 502 kts | 155° |
| 2026-05-06 17:04 | 36.83443 | 22.69912 | 37072 ft | 502 kts | 155° |
| 2026-05-06 17:04 | 36.77202 | 22.73810 | 37067 ft | 502 kts | 155° |
| 2026-05-06 17:05 | 36.70963 | 22.77699 | 37067 ft | 502 kts | 155° |
| 2026-05-06 17:05 | 36.64708 | 22.81591 | 37065 ft | 502 kts | 155° |
| 2026-05-06 17:06 | 36.58451 | 22.85476 | 37079 ft | 503 kts | 155° |
| 2026-05-06 17:06 | 36.52211 | 22.89345 | 37082 ft | 503 kts | 155° |
| 2026-05-06 17:07 | 36.45924 | 22.93236 | 37074 ft | 504 kts | 155° |
| 2026-05-06 17:07 | 36.39649 | 22.97112 | 37062 ft | 504 kts | 155° |
| 2026-05-06 17:08 | 36.33377 | 23.00980 | 37078 ft | 504 kts | 155° |
| 2026-05-06 17:08 | 36.27093 | 23.04846 | 37077 ft | 504 kts | 155° |
| 2026-05-06 17:09 | 36.20854 | 23.08680 | 37076 ft | 504 kts | 156° |
| 2026-05-06 17:09 | 36.14564 | 23.12537 | 37083 ft | 504 kts | 156° |
| 2026-05-06 17:10 | 36.08283 | 23.16388 | 37085 ft | 504 kts | 156° |
| 2026-05-06 17:10 | 36.01995 | 23.20232 | 37085 ft | 504 kts | 156° |
| 2026-05-06 17:11 | 35.95715 | 23.24060 | 37089 ft | 504 kts | 156° |
| 2026-05-06 17:11 | 35.89412 | 23.27897 | 37097 ft | 504 kts | 156° |
| 2026-05-06 17:12 | 35.84185 | 23.31076 | 37085 ft | 504 kts | 156° |
| 2026-05-06 17:12 | 35.77889 | 23.34898 | 37099 ft | 505 kts | 156° |
| 2026-05-06 17:13 | 35.70562 | 23.39337 | 37099 ft | 505 kts | 156° |
| 2026-05-06 17:13 | 35.65271 | 23.42538 | 37099 ft | 505 kts | 156° |
| 2026-05-06 17:14 | 35.59010 | 23.46319 | 37102 ft | 505 kts | 156° |
| 2026-05-06 17:14 | 35.52688 | 23.50130 | 37102 ft | 506 kts | 156° |
| 2026-05-06 17:15 | 35.46365 | 23.53935 | 37108 ft | 506 kts | 156° |
| 2026-05-06 17:15 | 35.40038 | 23.57736 | 37104 ft | 506 kts | 156° |
| 2026-05-06 17:16 | 35.33708 | 23.61532 | 37104 ft | 506 kts | 156° |
| 2026-05-06 17:16 | 35.27378 | 23.65321 | 37105 ft | 506 kts | 156° |
| 2026-05-06 17:17 | 35.21058 | 23.69104 | 37105 ft | 506 kts | 156° |
| 2026-05-06 17:17 | 35.14837 | 23.73028 | 37105 ft | 506 kts | 154° |
| 2026-05-06 17:18 | 35.08602 | 23.77049 | 37108 ft | 506 kts | 154° |
| 2026-05-06 17:18 | 35.02349 | 23.81048 | 37105 ft | 506 kts | 155° |
| 2026-05-06 17:19 | 34.96095 | 23.85013 | 37112 ft | 507 kts | 155° |
| 2026-05-06 17:19 | 34.89866 | 23.88947 | 37111 ft | 507 kts | 155° |
| 2026-05-06 17:20 | 34.83589 | 23.92904 | 37108 ft | 507 kts | 155° |
| 2026-05-06 17:20 | 34.77330 | 23.96845 | 37104 ft | 507 kts | 155° |
| 2026-05-06 17:21 | 34.71045 | 24.00797 | 37111 ft | 507 kts | 155° |
| 2026-05-06 17:21 | 34.64819 | 24.04704 | 37114 ft | 507 kts | 155° |
| 2026-05-06 17:22 | 34.58547 | 24.08633 | 37116 ft | 507 kts | 155° |
| 2026-05-06 17:22 | 34.52258 | 24.12567 | 37116 ft | 507 kts | 155° |
| 2026-05-06 17:23 | 34.45973 | 24.16491 | 37110 ft | 508 kts | 155° |
| 2026-05-06 17:23 | 34.39681 | 24.20413 | 37114 ft | 508 kts | 155° |
| 2026-05-06 17:24 | 34.33389 | 24.24328 | 37116 ft | 508 kts | 155° |
| 2026-05-06 17:24 | 34.27126 | 24.28219 | 37120 ft | 508 kts | 155° |
| 2026-05-06 17:25 | 34.20838 | 24.32119 | 37113 ft | 508 kts | 155° |
| 2026-05-06 17:25 | 34.14529 | 24.36024 | 37117 ft | 509 kts | 155° |
| 2026-05-06 17:26 | 34.08217 | 24.39925 | 37116 ft | 509 kts | 155° |
| 2026-05-06 17:26 | 34.01935 | 24.43857 | 37114 ft | 510 kts | 152° |
| 2026-05-06 17:27 | 33.96244 | 24.48998 | 37122 ft | 512 kts | 141° |
| 2026-05-06 17:27 | 33.90934 | 24.54653 | 37112 ft | 514 kts | 140° |
| 2026-05-06 17:28 | 33.85621 | 24.60425 | 37117 ft | 514 kts | 140° |
| 2026-05-06 17:28 | 33.80295 | 24.66176 | 37118 ft | 514 kts | 140° |
| 2026-05-06 17:29 | 33.74966 | 24.71891 | 37113 ft | 514 kts | 140° |
| 2026-05-06 17:29 | 33.69615 | 24.77609 | 37132 ft | 514 kts | 140° |
| 2026-05-06 17:30 | 33.64275 | 24.83306 | 37139 ft | 514 kts | 140° |
| 2026-05-06 17:30 | 33.58914 | 24.89016 | 37127 ft | 514 kts | 140° |
| 2026-05-06 17:31 | 33.53592 | 24.94675 | 37127 ft | 515 kts | 140° |
| 2026-05-06 17:31 | 33.48221 | 25.00376 | 37108 ft | 515 kts | 140° |
| 2026-05-06 17:32 | 33.42860 | 25.06059 | 37126 ft | 514 kts | 140° |
| 2026-05-06 17:32 | 33.37497 | 25.11732 | 37127 ft | 514 kts | 140° |
| 2026-05-06 17:33 | 33.32126 | 25.17405 | 37129 ft | 514 kts | 140° |
| 2026-05-06 17:33 | 33.26792 | 25.23028 | 37109 ft | 514 kts | 140° |
| 2026-05-06 17:34 | 33.21428 | 25.28675 | 37109 ft | 514 kts | 140° |
| 2026-05-06 17:34 | 33.16049 | 25.34327 | 37129 ft | 514 kts | 140° |
| 2026-05-06 17:35 | 33.10666 | 25.39973 | 37131 ft | 514 kts | 140° |
| 2026-05-06 17:35 | 33.05299 | 25.45593 | 37131 ft | 514 kts | 140° |
| 2026-05-06 17:36 | 32.97268 | 25.53986 | 37124 ft | 514 kts | 140° |
| 2026-05-06 17:36 | 32.91884 | 25.59601 | 37124 ft | 514 kts | 140° |
| 2026-05-06 17:37 | 32.86486 | 25.65220 | 37122 ft | 514 kts | 141° |
| 2026-05-06 17:37 | 32.81101 | 25.70817 | 37124 ft | 514 kts | 141° |
| 2026-05-06 17:38 | 32.75739 | 25.76380 | 37124 ft | 514 kts | 141° |
| 2026-05-06 17:38 | 32.70352 | 25.81961 | 37113 ft | 514 kts | 141° |
| 2026-05-06 17:39 | 32.64954 | 25.87543 | 37123 ft | 514 kts | 141° |
| 2026-05-06 17:39 | 32.59562 | 25.93109 | 37121 ft | 514 kts | 141° |
| 2026-05-06 17:40 | 32.54156 | 25.98682 | 37121 ft | 514 kts | 141° |
| 2026-05-06 17:40 | 32.48762 | 26.04231 | 37121 ft | 514 kts | 141° |
| 2026-05-06 17:41 | 32.43393 | 26.09747 | 37121 ft | 514 kts | 141° |
| 2026-05-06 17:41 | 32.37994 | 26.15284 | 37111 ft | 514 kts | 141° |
| 2026-05-06 17:42 | 32.32609 | 26.20798 | 37121 ft | 514 kts | 141° |
| 2026-05-06 17:42 | 32.27208 | 26.26319 | 37118 ft | 514 kts | 141° |
| 2026-05-06 17:43 | 32.21750 | 26.31890 | 37121 ft | 514 kts | 141° |
| 2026-05-06 17:43 | 32.16377 | 26.37364 | 37121 ft | 514 kts | 141° |
| 2026-05-06 17:44 | 32.10939 | 26.42895 | 37121 ft | 514 kts | 141° |
| 2026-05-06 17:44 | 32.05513 | 26.48405 | 37124 ft | 514 kts | 141° |
| 2026-05-06 17:45 | 32.00093 | 26.53902 | 37120 ft | 514 kts | 141° |
| 2026-05-06 17:45 | 31.94663 | 26.59399 | 37119 ft | 514 kts | 141° |
| 2026-05-06 17:46 | 31.89238 | 26.64882 | 37116 ft | 514 kts | 141° |
| 2026-05-06 17:46 | 31.83814 | 26.70355 | 37119 ft | 514 kts | 141° |
| 2026-05-06 17:47 | 31.78380 | 26.75828 | 37118 ft | 514 kts | 141° |
| 2026-05-06 17:47 | 31.72979 | 26.81261 | 37119 ft | 514 kts | 141° |
| 2026-05-06 17:48 | 31.67498 | 26.86764 | 37121 ft | 515 kts | 141° |
| 2026-05-06 17:48 | 31.62091 | 26.92186 | 37124 ft | 514 kts | 141° |
| 2026-05-06 17:49 | 31.56633 | 26.97649 | 37127 ft | 514 kts | 141° |
| 2026-05-06 17:49 | 31.51191 | 27.03087 | 37124 ft | 514 kts | 142° |
| 2026-05-06 17:50 | 31.45735 | 27.08532 | 37124 ft | 514 kts | 142° |
| 2026-05-06 17:50 | 31.40274 | 27.13972 | 37123 ft | 515 kts | 142° |
| 2026-05-06 17:51 | 31.34825 | 27.19395 | 37129 ft | 515 kts | 142° |
| 2026-05-06 17:51 | 31.30043 | 27.25587 | 37132 ft | 518 kts | 127° |
| 2026-05-06 17:52 | 31.25951 | 27.32500 | 37129 ft | 519 kts | 125° |
| 2026-05-06 17:52 | 31.21951 | 27.39477 | 37128 ft | 519 kts | 125° |
| 2026-05-06 17:53 | 31.18579 | 27.45335 | 37126 ft | 519 kts | 125° |
| 2026-05-06 17:53 | 31.14530 | 27.52317 | 37125 ft | 519 kts | 126° |
| 2026-05-06 17:54 | 31.10456 | 27.59269 | 37124 ft | 519 kts | 126° |
| 2026-05-06 17:54 | 31.06327 | 27.66163 | 37124 ft | 518 kts | 126° |
| 2026-05-06 17:55 | 31.02188 | 27.73054 | 37119 ft | 519 kts | 126° |
| 2026-05-06 17:55 | 30.98056 | 27.79947 | 37118 ft | 519 kts | 126° |
| 2026-05-06 17:56 | 30.93907 | 27.86868 | 37116 ft | 519 kts | 126° |
| 2026-05-06 17:56 | 30.89793 | 27.93719 | 37116 ft | 519 kts | 126° |
| 2026-05-06 17:57 | 30.85617 | 28.00661 | 37116 ft | 519 kts | 126° |
| 2026-05-06 17:57 | 30.81499 | 28.07493 | 37112 ft | 518 kts | 127° |
| 2026-05-06 17:58 | 30.77359 | 28.14350 | 37115 ft | 518 kts | 127° |
| 2026-05-06 17:58 | 30.73230 | 28.21177 | 37111 ft | 518 kts | 127° |
| 2026-05-06 17:59 | 30.69068 | 28.28047 | 37116 ft | 518 kts | 127° |
| 2026-05-06 17:59 | 30.64893 | 28.34925 | 37089 ft | 518 kts | 127° |
| 2026-05-06 18:00 | 30.60755 | 28.41732 | 37110 ft | 519 kts | 127° |
| 2026-05-06 18:00 | 30.56587 | 28.48575 | 37105 ft | 519 kts | 127° |
| 2026-05-06 18:01 | 30.52409 | 28.55426 | 37102 ft | 519 kts | 127° |
| 2026-05-06 18:01 | 30.48243 | 28.62243 | 37102 ft | 518 kts | 127° |
| 2026-05-06 18:02 | 30.44060 | 28.69077 | 37099 ft | 519 kts | 127° |
| 2026-05-06 18:02 | 30.39880 | 28.75895 | 37102 ft | 519 kts | 127° |
| 2026-05-06 18:03 | 30.35698 | 28.82703 | 37099 ft | 519 kts | 127° |
| 2026-05-06 18:03 | 30.31523 | 28.89488 | 37100 ft | 519 kts | 127° |
| 2026-05-06 18:04 | 30.27332 | 28.96288 | 37098 ft | 519 kts | 128° |
| 2026-05-06 18:04 | 30.23113 | 29.03124 | 37087 ft | 519 kts | 128° |
| 2026-05-06 18:05 | 30.18910 | 29.09920 | 37093 ft | 520 kts | 128° |
| 2026-05-06 18:05 | 30.14704 | 29.16733 | 37094 ft | 520 kts | 128° |
| 2026-05-06 18:06 | 30.10519 | 29.23541 | 37097 ft | 520 kts | 127° |
| 2026-05-06 18:06 | 30.06386 | 29.30404 | 37103 ft | 520 kts | 127° |
| 2026-05-06 18:07 | 30.02259 | 29.37263 | 37100 ft | 520 kts | 127° |
| 2026-05-06 18:07 | 29.98114 | 29.44121 | 37103 ft | 520 kts | 127° |
| 2026-05-06 18:08 | 29.93998 | 29.50906 | 37083 ft | 520 kts | 127° |
| 2026-05-06 18:08 | 29.89845 | 29.57740 | 37082 ft | 520 kts | 127° |
| 2026-05-06 18:09 | 29.85686 | 29.64573 | 37080 ft | 520 kts | 127° |
| 2026-05-06 18:09 | 29.81527 | 29.71394 | 37078 ft | 520 kts | 127° |
| 2026-05-06 18:10 | 29.77358 | 29.78220 | 37087 ft | 520 kts | 128° |
| 2026-05-06 18:10 | 29.73194 | 29.85029 | 37076 ft | 520 kts | 128° |
| 2026-05-06 18:11 | 29.69040 | 29.91809 | 37075 ft | 521 kts | 128° |
| 2026-05-06 18:11 | 29.64838 | 29.98654 | 37071 ft | 521 kts | 128° |
| 2026-05-06 18:12 | 29.60653 | 30.05462 | 37077 ft | 521 kts | 128° |
| 2026-05-06 18:12 | 29.56477 | 30.12243 | 37066 ft | 520 kts | 128° |
| 2026-05-06 18:13 | 29.52279 | 30.19051 | 37070 ft | 521 kts | 128° |
| 2026-05-06 18:13 | 29.48091 | 30.25828 | 37071 ft | 521 kts | 128° |
| 2026-05-06 18:14 | 29.43886 | 30.32624 | 37060 ft | 521 kts | 128° |
| 2026-05-06 18:14 | 29.39605 | 30.39305 | 37053 ft | 518 kts | 134° |
| 2026-05-06 18:15 | 29.34722 | 30.45359 | 37065 ft | 518 kts | 137° |
| 2026-05-06 18:15 | 29.29732 | 30.51302 | 37062 ft | 518 kts | 138° |
| 2026-05-06 18:16 | 29.24722 | 30.57240 | 37062 ft | 518 kts | 138° |
| 2026-05-06 18:16 | 29.19728 | 30.63171 | 37057 ft | 518 kts | 138° |
| 2026-05-06 18:17 | 29.14721 | 30.69118 | 37059 ft | 517 kts | 138° |
| 2026-05-06 18:17 | 29.09728 | 30.75042 | 37059 ft | 517 kts | 138° |
| 2026-05-06 18:18 | 29.04721 | 30.80972 | 37038 ft | 517 kts | 138° |
| 2026-05-06 18:18 | 28.99744 | 30.86859 | 37061 ft | 519 kts | 138° |
| 2026-05-06 18:19 | 28.94701 | 30.92814 | 37062 ft | 519 kts | 138° |
| 2026-05-06 18:19 | 28.89682 | 30.98732 | 37072 ft | 519 kts | 138° |
| 2026-05-06 18:20 | 28.84610 | 31.04704 | 37060 ft | 519 kts | 138° |
| 2026-05-06 18:20 | 28.79588 | 31.10609 | 37054 ft | 519 kts | 138° |
| 2026-05-06 18:21 | 28.74543 | 31.16531 | 37055 ft | 519 kts | 138° |
| 2026-05-06 18:21 | 28.69519 | 31.22422 | 37054 ft | 519 kts | 139° |
| 2026-05-06 18:22 | 28.64615 | 31.28458 | 37057 ft | 522 kts | 136° |
| 2026-05-06 18:22 | 28.59808 | 31.34625 | 37061 ft | 523 kts | 136° |
| 2026-05-06 18:23 | 28.54958 | 31.40796 | 37061 ft | 522 kts | 136° |
| 2026-05-06 18:23 | 28.50080 | 31.46935 | 37061 ft | 522 kts | 136° |
| 2026-05-06 18:24 | 28.45196 | 31.53054 | 37057 ft | 522 kts | 137° |
| 2026-05-06 18:24 | 28.40307 | 31.59170 | 37062 ft | 522 kts | 137° |
| 2026-05-06 18:25 | 28.36221 | 31.64276 | 37058 ft | 522 kts | 137° |
| 2026-05-06 18:25 | 28.31357 | 31.70348 | 37033 ft | 522 kts | 137° |
| 2026-05-06 18:26 | 28.26457 | 31.76455 | 37059 ft | 523 kts | 137° |
| 2026-05-06 18:26 | 28.21560 | 31.82551 | 37057 ft | 523 kts | 137° |
| 2026-05-06 18:27 | 28.16640 | 31.88666 | 37059 ft | 523 kts | 137° |
| 2026-05-06 18:27 | 28.11732 | 31.94757 | 37058 ft | 523 kts | 137° |
| 2026-05-06 18:28 | 28.06824 | 32.00839 | 37058 ft | 523 kts | 137° |
| 2026-05-06 18:28 | 28.02340 | 32.07347 | 37064 ft | 530 kts | 124° |
| 2026-05-06 18:29 | 27.98690 | 32.14631 | 37048 ft | 532 kts | 122° |
| 2026-05-06 18:29 | 27.95183 | 32.21995 | 37034 ft | 532 kts | 122° |
| 2026-05-06 18:30 | 27.91682 | 32.29330 | 37020 ft | 532 kts | 122° |
| 2026-05-06 18:30 | 27.88141 | 32.36679 | 37000 ft | 532 kts | 122° |
| 2026-05-06 18:31 | 27.84591 | 32.44007 | 36995 ft | 532 kts | 122° |
| 2026-05-06 18:31 | 27.81031 | 32.51341 | 36992 ft | 532 kts | 122° |
| 2026-05-06 18:32 | 27.77465 | 32.58676 | 36996 ft | 532 kts | 123° |
| 2026-05-06 18:32 | 27.73900 | 32.65998 | 37003 ft | 532 kts | 123° |